Friday, May 29, 2015, 1:54 AM EDT

KRDG, Reading Regional Airport

Location: Reading, PA, United States Lat: 40.367
Local Time: 1:54 AM EDT ( 5:54 GMT) Lon: -75.967
Time Zone: US/Eastern Elev: 344 ft

Show me the last for .
Show Decoded

2015-05-29 00:54 METAR KRDG 290454Z 35004KT 10SM CLR 20/11 A3025 RMK AO2 SLP245 T02000106
                 403110183 $ =
2015-05-28 23:54 METAR KRDG 290354Z 00000KT 10SM CLR 22/11 A3024 RMK AO2 SLP242 T02170106 $ =
2015-05-28 22:54 METAR KRDG 290254Z 01005KT 10SM CLR 23/11 A3023 RMK AO2 SLP238 T02330111 51019 =
2015-05-28 21:54 METAR KRDG 290154Z 02008KT 10SM CLR 24/12 A3021 RMK AO2 SLP233 T02440117 =
2015-05-28 20:54 METAR KRDG 290054Z AUTO 03005KT 10SM CLR 26/12 A3019 RMK AO2 SLP224 T02560122 =
2015-05-28 19:54 METAR KRDG 282354Z AUTO 34007KT 10SM CLR 27/13 A3017 RMK AO2 SLP218 T02720128
                 10311 20272 53006 =
2015-05-28 18:54 METAR KRDG 282254Z AUTO 32005KT 10SM CLR 29/13 A3016 =
2015-05-28 17:54 METAR KRDG 282154Z AUTO 34009KT 10SM FEW060 29/13 A3014 =
2015-05-28 16:54 METAR KRDG 282054Z AUTO 31009KT 280V340 10SM FEW055 31/15 A3015 RMK AO2 SLP212
                 T03060150 58002 =
2015-05-28 15:54 METAR KRDG 281954Z AUTO 30009G16KT 10SM SCT060 29/16 A3016 RMK AO2 SLP215
                 T02940156 =
2015-05-28 14:54 METAR KRDG 281854Z 27010KT 10SM FEW060 31/16 A3016 RMK AO2 SLP216 T03060161 =
2015-05-28 13:54 METAR KRDG 281754Z 28009G16KT 10SM CLR 30/17 A3016 RMK AO2 SLP214 T03000172
                 10300 20228 58004 =
2015-05-28 12:54 METAR KRDG 281654Z 25004KT 10SM FEW039 FEW050 29/18 A3016 RMK AO2 SLP216
                 T02890178 =
2015-05-28 11:54 METAR KRDG 281554Z 29009KT 240V340 8SM FEW028 BKN040 28/18 A3017 RMK AO2 SLP218
                 T02830183 =
2015-05-28 10:54 METAR KRDG 281454Z 27006KT 10SM SCT022 27/19 A3017 =
2015-05-28 10:43 METAR KRDG 281443Z 28005KT 10SM SCT019 BKN026 27/19 A3017 RMK AO2 T02670194 =
2015-05-28 09:54 METAR KRDG 281354Z 30003KT 8SM SCT015 26/20 A3016 RMK AO2 SLP217 T02560200 =
2015-05-28 09:36 METAR KRDG 281336Z 25005KT 8SM BKN014 24/20 A3017 RMK AO2 T02440200 =
2015-05-28 09:24 METAR KRDG 281324Z 21003KT 9SM SCT014 25/20 A3017 RMK AO2 T02500200 =
2015-05-28 09:01 METAR KRDG 281301Z 22004KT 8SM BKN014 24/20 A3017 RMK AO2 T02440200 =
2015-05-28 08:54 METAR KRDG 281254Z VRB04KT 2 1/2SM HZ BKN014 24/20 A3017 =
2015-05-28 08:16 METAR KRDG 281216Z 25004KT 2 1/2SM HZ BKN010 23/20 A3016 RMK AO2 T02330200 =
2015-05-28 07:54 METAR KRDG 281154Z 23004KT 2 1/2SM BR OVC009 23/21 A3015 RMK AO2 CIG 007V011
                 SLP213 60000 70019 T02280206 10228 20183 51013 =
2015-05-28 07:16 METAR KRDG 281116Z 20004KT 2 1/2SM BR OVC009 22/20 A3015 RMK AO2 T02220200 =
2015-05-28 07:01 METAR KRDG 281101Z 00000KT 5SM BR OVC009 22/20 A3015 RMK AO2 T02170200 =
2015-05-28 06:54 METAR KRDG 281054Z 00000KT 2 1/2SM BR BKN009 21/20 A3015 RMK AO2 RAB38E51 CIG
                 007V011 SLP210 P0000 T02110200 =
2015-05-28 06:04 METAR KRDG 281004Z 00000KT 2 1/2SM BR OVC009 21/19 A3014 =
2015-05-28 05:54 METAR KRDG 280954Z 00000KT 10SM OVC009 20/19 A3014 RMK AO2 SLP209 T02000189 =
2015-05-28 05:19 METAR KRDG 280919Z 00000KT 3SM BR OVC008 20/19 A3012 RMK AO2 T02000189 =
2015-05-28 05:05 METAR KRDG 280905Z 00000KT 2SM BR OVC008 20/19 A3012 RMK AO2 T02000189 =
2015-05-28 04:54 METAR KRDG 280854Z 00000KT 6SM BR OVC008 20/19 A3012 RMK AO2 SLP202 T02000189
                 55002 =
2015-05-28 03:54 METAR KRDG 280754Z 00000KT 5SM BR OVC009 19/18 A3011 =
2015-05-28 03:36 METAR KRDG 280736Z 00000KT 9SM OVC009 19/18 A3011 RMK AO2 T01940183 =
2015-05-28 02:54 METAR KRDG 280654Z 00000KT 8SM OVC011 19/18 A3011 RMK AO2 SLP200 T01940183 =
2015-05-28 02:30 METAR KRDG 280630Z 00000KT 4SM BR BKN013 19/18 A3012 RMK AO2 T01890183 =
2015-05-28 02:22 METAR KRDG 280622Z 00000KT 2 1/2SM BR BKN013 19/18 A3012 RMK AO2 T01890178 =
2015-05-28 02:11 METAR KRDG 280611Z 00000KT 1 3/4SM R36/2800VP6000FT BR FEW013 19/18 A3012 RMK
                 AO2 T01890178 =

Support USWX by starting your Amazon purchase here.